WMSA METAR and TAF | Updated Today

WMSA METAR

Sultan Abdul Aziz Shah International Airport

Observation time: 41 min. ago

WMSA 051900Z 18007KT 150V210 7000 FEW010 FEW017CB 25/24 Q1010

Need help? Read our tutorial on how to read METARs or read the parsed version below.

Sultan Abdul Aziz Shah International Airport (WMSA) METAR

  • Weather conditions on Sun, 05 Feb 2023 19:00:00 +0000 (41 min. ago):
  • Present conditions: Dry
  • Clouds: A few at 305 meters; a few at 518 meters, cumulonimbus
  • Visibility: 7000 meters
  • Wind: 180 degrees at 7 knots
  • Temperature: 25 celsius
  • Dew point: 24 celsius
  • Pressure: 1010 millibars
  • Remarks: None


Useful to know...

WMSA TAF

Sultan Abdul Aziz Shah International Airport

TAF WMSA 051700Z 0518/0618 VRB03KT 9000 FEW017CB TEMPO 0521/0602 04008KT 5000 TSRA FEW016CB SCT018
Observation time: 2:41 hr. ago
Need help? Read our tutorial on how to read TAFs or read the parsed version below.

Parsed version of TAF for Sultan Abdul Aziz Shah International Airport (WMSA)

  • From 05 February at 18:00 UTC, to day 06 of the month at 18:00 UTC
  • Clouds: A few at 518 meters, cumulonimbus
  • Visibility: 9000 meters
  • Wind: Variable at 3
  • Expected to arise temporarily, from 05 February at 21:00 UTC, to day 06 of the month at 02:00 UTC
  • Clouds: A few at 488 meters, cumulonimbus; scattered at 549 meters
  • Visibility: 5000 meters
  • Wind: 40 degrees at 8
  • Other: Thunderstorms rain